Time;durP1;ratioP1;P1;durP2;ratioP2;P2;SDS_P1;SDS_P2;PMS_P1;PMS_P2;Temp;Humidity;BMP_temperature;BMP_pressure;BME280_temperature;BME280_humidity;BME280_pressure;Samples;Min_cycle;Max_cycle;Signal;HPM_P1;HPM_P2
2022/09/25 00:00:49;;;;;;;7.03;1.77;;;;;;;15.01;64.92;101453.91;5136051;27;20119;-58
2022/09/25 00:03:18;;;;;;;5.35;1.98;;;;;;;15.01;64.80;101462.88;5128175;27;20039;-57
2022/09/25 00:05:47;;;;;;;3.88;1.48;;;;;;;15.00;64.63;101468.50;5127054;28;20040;-58
2022/09/25 00:08:16;;;;;;;9.57;1.75;;;;;;;14.97;64.71;101467.91;5113568;27;20051;-58
2022/09/25 00:10:45;;;;;;;6.22;1.38;;;;;;;14.98;64.79;101466.03;5123862;27;20512;-58
2022/09/25 00:13:14;;;;;;;6.68;2.15;;;;;;;14.97;64.52;101477.94;5128391;27;20393;-59
2022/09/25 00:15:47;;;;;;;6.65;2.22;;;;;;;14.97;64.55;101469.81;5123577;27;20051;-58
2022/09/25 00:18:16;;;;;;;6.70;1.95;;;;;;;14.95;64.39;101475.47;5124280;27;20044;-58
2022/09/25 00:20:42;;;;;;;6.25;1.67;;;;;;;14.87;64.69;101458.75;5119304;27;20469;-58
2022/09/25 00:23:10;;;;;;;6.50;1.58;;;;;;;14.93;64.49;101468.63;5133805;27;20107;-58
2022/09/25 00:25:38;;;;;;;4.43;1.52;;;;;;;14.94;64.67;101472.97;5122972;28;20062;-58
2022/09/25 00:28:06;;;;;;;6.68;1.70;;;;;;;14.93;64.25;101476.75;5116360;27;20036;-58
2022/09/25 00:30:34;;;;;;;6.93;1.40;;;;;;;14.91;64.54;101476.16;5109378;27;20067;-58
2022/09/25 00:33:03;;;;;;;4.80;2.03;;;;;;;14.90;64.59;101478.03;5115664;27;20048;-58
2022/09/25 00:35:30;;;;;;;5.50;1.48;;;;;;;14.88;64.34;101474.75;5122935;28;20058;-58
2022/09/25 00:37:58;;;;;;;6.88;1.67;;;;;;;14.87;64.39;101475.81;5114872;27;20048;-58
2022/09/25 00:40:26;;;;;;;6.03;1.80;;;;;;;14.87;64.18;101467.69;5121984;27;20062;-58
2022/09/25 00:42:54;;;;;;;6.93;2.08;;;;;;;14.87;64.18;101473.09;5116884;28;20101;-58
2022/09/25 00:45:22;;;;;;;4.65;2.00;;;;;;;14.86;64.34;101474.16;5114633;27;20079;-58
2022/09/25 00:47:59;;;;;;;6.90;1.70;;;;;;;14.85;64.43;101474.41;5116505;27;20036;-58
2022/09/25 00:50:33;;;;;;;;;;;;;;;14.83;64.49;101474.63;5125994;28;20055;-58
2022/09/25 00:53:06;;;;;;;9.20;1.98;;;;;;;14.83;64.50;101480.03;5127126;27;19924;-59
2022/09/25 00:55:37;;;;;;;10.18;1.83;;;;;;;14.83;64.47;101480.03;5123138;27;20369;-58
2022/09/25 00:58:06;;;;;;;8.20;1.73;;;;;;;14.83;64.32;101479.22;5125391;28;20043;-58
2022/09/25 01:00:34;;;;;;;9.40;2.35;;;;;;;14.82;64.58;101483.81;5125344;27;20047;-58
2022/09/25 01:03:03;;;;;;;6.38;1.50;;;;;;;14.82;64.69;101472.97;5121538;28;20052;-58
2022/09/25 01:05:36;;;;;;;6.97;2.15;;;;;;;14.81;64.55;101465.09;5119208;28;20119;-58
2022/09/25 01:08:08;;;;;;;10.10;1.88;;;;;;;14.81;64.41;101467.81;5126858;27;20058;-58
2022/09/25 01:10:36;;;;;;;5.75;1.52;;;;;;;14.82;64.33;101472.16;5126221;28;20043;-58
2022/09/25 01:13:05;;;;;;;4.18;1.95;;;;;;;14.80;64.46;101475.09;5121964;27;20418;-58
2022/09/25 01:15:42;;;;;;;5.97;1.30;;;;;;;14.80;64.08;101479.69;5124837;27;20496;-58
2022/09/25 01:18:21;;;;;;;6.28;1.45;;;;;;;14.80;64.22;101476.97;5130907;27;20050;-58
2022/09/25 01:21:20;;;;;;;7.47;1.92;;;;;;;14.76;64.06;101476.63;5124423;27;20043;-58
2022/09/25 01:24:10;;;;;;;4.28;1.40;;;;;;;14.77;63.99;101475.56;5119418;27;20110;-58
2022/09/25 01:27:06;;;;;;;8.48;1.40;;;;;;;14.76;64.18;101479.31;5111858;28;20048;-58
2022/09/25 01:29:41;;;;;;;6.93;1.83;;;;;;;14.75;64.08;101480.38;5116650;27;20044;-58
2022/09/25 01:32:18;;;;;;;5.85;1.42;;;;;;;14.76;64.36;101483.91;5116442;28;20142;-58
2022/09/25 01:34:54;;;;;;;6.97;1.70;;;;;;;14.74;64.34;101486.84;5123289;27;20059;-58
2022/09/25 01:37:26;;;;;;;6.25;1.40;;;;;;;14.74;64.14;101486.84;5118023;28;20121;-58
2022/09/25 01:40:05;;;;;;;5.97;1.83;;;;;;;14.73;64.23;101482.50;5109954;28;20044;-58
2022/09/25 01:42:39;;;;;;;9.15;1.98;;;;;;;14.72;64.35;101485.44;5121579;27;20139;-58
2022/09/25 01:45:15;;;;;;;6.45;1.42;;;;;;;14.70;63.91;101491.09;5120316;27;20393;-58
2022/09/25 01:47:47;;;;;;;4.93;1.88;;;;;;;14.70;64.01;101493.78;5115061;28;20056;-58
2022/09/25 01:50:20;;;;;;;9.48;1.52;;;;;;;14.70;64.12;101498.38;5110934;28;20062;-58
2022/09/25 01:52:51;;;;;;;8.35;2.10;;;;;;;14.69;64.31;101494.84;5125188;27;20046;-58
2022/09/25 01:55:24;;;;;;;9.32;2.17;;;;;;;14.68;64.43;101493.19;5113513;28;20055;-58
2022/09/25 01:57:58;;;;;;;4.53;1.48;;;;;;;14.67;64.27;101488.84;5123151;27;20071;-58
2022/09/25 02:00:27;;;;;;;6.60;1.70;;;;;;;14.65;64.13;101499.06;5122716;27;20063;-58
2022/09/25 02:02:58;;;;;;;8.35;1.70;;;;;;;14.64;63.74;101498.25;5117672;27;20046;-58
2022/09/25 02:05:30;;;;;;;5.47;2.20;;;;;;;14.64;63.75;101500.13;5123076;27;20088;-58
2022/09/25 02:08:03;;;;;;;8.20;2.05;;;;;;;14.63;63.82;101493.06;5127380;27;20048;-58
2022/09/25 02:10:35;;;;;;;6.43;2.08;;;;;;;14.61;63.76;101495.19;5124201;27;20046;-58
2022/09/25 02:13:08;;;;;;;5.60;1.65;;;;;;;14.60;63.78;101497.06;5129821;27;20058;-58
2022/09/25 02:15:41;;;;;;;4.80;1.40;;;;;;;14.58;63.74;101499.19;5107648;28;20051;-58
2022/09/25 02:21:01;;;;;;;8.38;1.60;;;;;;;14.57;63.65;101500.25;5120325;27;20043;-58
2022/09/25 02:23:39;;;;;;;8.63;2.00;;;;;;;14.57;63.94;101502.13;5116824;28;20044;-58
2022/09/25 02:26:10;;;;;;;6.63;1.58;;;;;;;14.57;63.66;101502.13;5119199;28;20051;-58
2022/09/25 02:28:38;;;;;;;6.55;1.80;;;;;;;14.55;63.74;101501.53;5113795;28;20058;-58
2022/09/25 02:31:12;;;;;;;4.78;1.25;;;;;;;14.56;63.94;101497.78;5123384;27;20040;-58
2022/09/25 02:33:40;;;;;;;7.05;1.75;;;;;;;14.52;63.51;101494.69;5122175;28;20062;-58
2022/09/25 02:36:17;;;;;;;8.07;2.05;;;;;;;14.52;63.78;101499.28;5119543;27;20048;-58
2022/09/25 02:38:48;;;;;;;9.90;1.80;;;;;;;14.52;63.58;101496.59;5130812;27;20102;-58
2022/09/25 02:41:24;;;;;;;6.38;1.48;;;;;;;14.50;64.02;101496.81;5111755;28;20047;-58
2022/09/25 02:44:00;;;;;;;5.68;1.73;;;;;;;14.49;63.81;101489.75;5116585;28;20515;-58
2022/09/25 02:46:38;;;;;;;5.78;1.70;;;;;;;14.49;63.81;101499.75;5115477;28;20052;-58
2022/09/25 02:49:17;;;;;;;5.05;1.70;;;;;;;14.47;63.50;101489.16;5115361;28;20052;-58
2022/09/25 02:51:54;;;;;;;5.50;1.35;;;;;;;14.48;63.78;101495.41;5121741;28;20055;-58
2022/09/25 02:54:29;;;;;;;6.85;1.50;;;;;;;14.45;63.78;101485.88;5121549;27;20058;-58
2022/09/25 02:57:03;;;;;;;6.30;1.95;;;;;;;14.45;63.73;101485.88;5113681;28;20389;-58
2022/09/25 02:59:35;;;;;;;7.90;1.67;;;;;;;14.45;63.67;101482.34;5121716;27;20050;-58
2022/09/25 03:02:04;;;;;;;6.32;1.83;;;;;;;14.43;63.74;101484.44;5124378;28;20047;-58
2022/09/25 03:04:36;;;;;;;8.23;1.60;;;;;;;14.42;63.29;101489.03;5121535;28;20052;-58
2022/09/25 03:07:05;;;;;;;4.32;1.40;;;;;;;14.41;63.30;101486.53;5124027;28;20329;-58
2022/09/25 03:09:34;;;;;;;5.45;1.70;;;;;;;14.40;63.58;101488.41;5135527;28;20054;-58
2022/09/25 03:12:03;;;;;;;7.65;1.60;;;;;;;14.40;63.38;101487.59;5115464;28;20044;-58
2022/09/25 03:14:31;;;;;;;4.57;1.48;;;;;;;14.37;63.47;101475.34;5114487;28;20043;-58
2022/09/25 03:17:03;;;;;;;5.65;2.38;;;;;;;14.37;63.62;101475.34;5119394;28;20052;-58
2022/09/25 03:19:33;;;;;;;8.60;1.80;;;;;;;14.37;63.31;101482.63;5118965;28;20074;-58
2022/09/25 03:22:02;;;;;;;5.78;1.42;;;;;;;14.36;63.47;101479.09;5114331;28;20055;-58
2022/09/25 03:24:30;;;;;;;5.68;1.63;;;;;;;14.34;63.43;101478.53;5122647;28;20035;-59
2022/09/25 03:26:58;;;;;;;9.13;2.42;;;;;;;14.33;63.38;101479.56;5119678;28;20081;-58
2022/09/25 03:29:26;;;;;;;4.70;1.55;;;;;;;14.33;63.35;101485.81;5108449;28;20048;-58
2022/09/25 03:31:54;;;;;;;7.10;1.88;;;;;;;14.33;63.22;101488.50;5124813;28;20040;-58
2022/09/25 03:34:22;;;;;;;8.25;2.10;;;;;;;14.32;63.40;101480.63;5121285;28;20147;-58
2022/09/25 03:36:51;;;;;;;6.35;1.85;;;;;;;14.32;63.24;101483.34;5116767;28;20047;-58
2022/09/25 03:39:18;;;;;;;8.63;1.85;;;;;;;14.23;63.71;101477.44;5121290;28;20050;-58
2022/09/25 03:41:46;;;;;;;7.28;1.52;;;;;;;14.30;63.58;101499.78;5111854;28;20051;-58
2022/09/25 03:44:14;;;;;;;5.57;2.05;;;;;;;14.28;63.43;101491.09;5120256;28;20051;-58
2022/09/25 03:46:42;;;;;;;5.03;1.85;;;;;;;14.28;63.20;101493.78;5113242;28;20054;-58
2022/09/25 03:49:11;;;;;;;8.50;1.70;;;;;;;14.27;63.42;101494.84;5109124;28;20055;-58
2022/09/25 03:51:40;;;;;;;6.53;1.80;;;;;;;14.26;63.21;101498.59;5127641;28;20081;-58
2022/09/25 03:54:10;;;;;;;6.40;1.45;;;;;;;14.24;63.18;101489.06;5118392;28;20047;-58
2022/09/25 03:56:38;;;;;;;4.03;1.42;;;;;;;14.24;63.24;101486.38;5124193;28;20048;-58
2022/09/25 03:59:06;;;;;;;3.88;1.50;;;;;;;14.23;63.25;101488.25;5115034;28;20048;-58
2022/09/25 04:01:35;;;;;;;5.10;1.40;;;;;;;14.23;63.49;101490.13;5112556;28;20049;-58
2022/09/25 04:04:03;;;;;;;5.40;1.40;;;;;;;14.23;63.26;101487.41;5119060;28;20050;-58
2022/09/25 04:06:31;;;;;;;5.90;1.55;;;;;;;14.21;63.19;101484.94;5125531;27;20071;-58
2022/09/25 04:08:59;;;;;;;4.93;1.52;;;;;;;14.21;62.98;101486.81;5127509;27;20111;-58
2022/09/25 04:11:28;;;;;;;6.78;1.33;;;;;;;14.21;63.44;101497.63;5112482;28;20052;-58
2022/09/25 04:13:56;;;;;;;4.88;1.35;;;;;;;14.20;63.13;101490.59;5129917;27;20071;-58
2022/09/25 04:16:23;;;;;;;4.30;1.45;;;;;;;14.20;63.33;101490.59;5134525;27;20127;-58
2022/09/25 04:18:51;;;;;;;4.25;1.45;;;;;;;14.19;63.13;101480.81;5123177;28;20059;-58
2022/09/25 04:21:19;;;;;;;5.32;2.00;;;;;;;14.18;62.96;101488.09;5125667;27;20051;-58
2022/09/25 04:24:47;;;;;;;6.47;2.30;;;;;;;14.18;63.33;101487.28;5124478;28;20052;-58
2022/09/25 04:26:36;;;;;;;7.22;2.45;;;;;;;14.16;63.09;101483.97;5131424;27;20092;-58
2022/09/25 04:29:04;;;;;;;7.40;1.80;;;;;;;14.14;62.94;101489.63;5113897;28;20047;-58
2022/09/25 04:31:33;;;;;;;5.60;1.52;;;;;;;14.02;63.13;101472.53;5112805;27;20082;-58
2022/09/25 04:34:00;;;;;;;4.53;1.70;;;;;;;14.12;63.17;101488.19;5131500;27;20128;-58
2022/09/25 04:36:28;;;;;;;6.45;1.85;;;;;;;14.10;62.94;101490.31;5130261;27;20043;-58
2022/09/25 04:38:56;;;;;;;7.03;2.00;;;;;;;14.09;63.09;101489.47;5115928;27;20060;-58
2022/09/25 04:41:24;;;;;;;5.78;2.00;;;;;;;14.09;63.15;101485.97;5126576;28;20055;-58
2022/09/25 04:43:53;;;;;;;4.07;1.83;;;;;;;14.08;62.96;101487.84;5130947;27;20051;-58
2022/09/25 04:46:20;;;;;;;6.10;3.10;;;;;;;14.07;62.77;101480.78;5116993;27;20054;-58
2022/09/25 04:48:50;;;;;;;9.55;2.40;;;;;;;14.05;62.85;101493.69;5124094;27;20046;-58
2022/09/25 04:51:17;;;;;;;8.32;2.35;;;;;;;14.04;63.14;101486.66;5120284;27;20064;-58
2022/09/25 04:53:46;;;;;;;5.70;2.10;;;;;;;14.05;63.08;101488.28;5130606;27;20066;-58
2022/09/25 04:56:13;;;;;;;7.20;1.90;;;;;;;14.02;63.19;101489.56;5115737;27;20039;-58
2022/09/25 04:58:45;;;;;;;3.85;2.10;;;;;;;14.02;62.88;101483.34;5122334;28;20054;-58
2022/09/25 05:01:15;;;;;;;7.37;2.43;;;;;;;14.00;63.17;101480.88;4762179;27;10000508;-58
2022/09/25 05:03:43;;;;;;;6.13;1.95;;;;;;;14.00;62.87;101482.75;5118578;27;20313;-58
2022/09/25 05:06:11;;;;;;;5.00;2.30;;;;;;;13.99;62.91;101475.69;5114630;27;20150;-58
2022/09/25 05:08:39;;;;;;;5.18;2.55;;;;;;;13.98;62.98;101479.44;5128290;27;20057;-58
2022/09/25 05:11:07;;;;;;;4.72;2.08;;;;;;;13.98;62.79;101482.16;5115335;27;20035;-57
2022/09/25 05:13:35;;;;;;;4.75;2.40;;;;;;;13.95;63.02;101478.03;5121148;27;20054;-59
2022/09/25 05:16:03;;;;;;;5.90;2.45;;;;;;;13.96;62.72;101484.25;5115517;28;20048;-58
2022/09/25 05:18:32;;;;;;;7.57;2.22;;;;;;;13.95;63.04;101482.59;5108735;28;20163;-58
2022/09/25 05:21:03;;;;;;;4.85;2.35;;;;;;;13.87;62.88;101467.53;5117417;27;20063;-58
2022/09/25 05:23:31;;;;;;;4.22;2.17;;;;;;;13.92;62.63;101483.88;5116624;27;20051;-58
2022/09/25 05:25:59;;;;;;;6.35;2.17;;;;;;;13.92;62.72;101474.97;5123613;27;20050;-58
2022/09/25 05:28:27;;;;;;;4.22;2.25;;;;;;;13.80;62.45;101456.03;5124765;27;20048;-58
2022/09/25 05:30:55;;;;;;;6.15;2.83;;;;;;;13.90;62.50;101472.50;5114173;28;20048;-58
2022/09/25 05:33:22;;;;;;;5.50;2.35;;;;;;;13.90;62.67;101471.66;5119446;28;20051;-58
2022/09/25 05:35:52;;;;;;;4.97;2.35;;;;;;;13.79;62.52;101448.97;5116724;28;20048;-59
2022/09/25 05:38:19;;;;;;;5.03;2.58;;;;;;;13.89;62.37;101473.53;5121217;27;20054;-58
2022/09/25 05:40:47;;;;;;;4.80;2.50;;;;;;;13.89;62.39;101478.13;5117711;28;20043;-58
2022/09/25 05:43:15;;;;;;;8.43;2.38;;;;;;;13.88;62.19;101471.88;5120255;27;20043;-58
2022/09/25 05:45:43;;;;;;;7.72;2.25;;;;;;;13.87;62.07;101475.66;5111376;27;20043;-58
2022/09/25 05:48:11;;;;;;;6.30;2.40;;;;;;;13.86;62.21;101478.59;5121282;28;20701;-58
2022/09/25 05:50:39;;;;;;;4.85;2.33;;;;;;;13.84;62.30;101475.31;5118045;28;20053;-59
2022/09/25 05:53:09;;;;;;;5.97;2.40;;;;;;;13.83;62.21;101479.06;5107993;28;20059;-57
2022/09/25 05:55:36;;;;;;;5.32;2.30;;;;;;;13.82;62.49;101488.22;5120177;28;20414;-58
2022/09/25 05:58:05;;;;;;;10.90;2.58;;;;;;;13.80;62.54;101479.53;5115945;27;20054;-57
2022/09/25 06:00:33;;;;;;;4.30;2.63;;;;;;;13.70;62.33;101471.94;5118388;27;20048;-58
2022/09/25 06:03:01;;;;;;;7.78;2.90;;;;;;;13.77;62.40;101488.91;5107657;27;20066;-58
2022/09/25 06:05:29;;;;;;;6.13;2.30;;;;;;;13.76;62.48;101492.66;5115081;28;20097;-58
2022/09/25 06:07:57;;;;;;;3.60;2.03;;;;;;;13.74;62.21;101492.06;5120059;27;20060;-58
2022/09/25 06:10:26;;;;;;;6.03;2.20;;;;;;;13.74;62.36;101494.75;5109353;28;20070;-58
2022/09/25 06:12:57;;;;;;;4.43;2.15;;;;;;;13.72;62.45;101494.16;5113043;28;20067;-58
2022/09/25 06:15:26;;;;;;;6.68;2.85;;;;;;;13.72;62.28;101491.47;5114705;27;20051;-57
2022/09/25 06:17:55;;;;;;;7.60;2.50;;;;;;;13.71;62.36;101494.38;5116132;28;20055;-57
2022/09/25 06:20:22;;;;;;;5.30;2.42;;;;;;;13.68;62.69;101491.09;4767700;27;9999667;-58
2022/09/25 06:22:53;;;;;;;4.85;2.55;;;;;;;13.68;62.43;101499.19;4759025;27;9999685;-57
2022/09/25 06:25:22;;;;;;;3.45;2.17;;;;;;;13.67;62.45;101491.31;4757732;27;9999982;-58
2022/09/25 06:27:53;;;;;;;3.95;2.33;;;;;;;13.67;62.23;101497.53;5118289;27;20051;-58
2022/09/25 06:30:22;;;;;;;8.70;2.80;;;;;;;13.66;62.24;101498.59;5110086;28;20051;-58
2022/09/25 06:32:56;;;;;;;6.90;2.30;;;;;;;13.66;62.31;101497.78;5125517;27;20493;-58
2022/09/25 06:35:24;;;;;;;5.70;2.40;;;;;;;13.64;62.39;101495.28;5111091;28;20047;-58
2022/09/25 06:37:56;;;;;;;7.70;2.83;;;;;;;13.64;62.71;101503.41;5103407;28;20540;-57
2022/09/25 06:40:25;;;;;;;5.60;2.55;;;;;;;13.58;62.82;101498.06;5109456;28;20044;-58
2022/09/25 06:42:56;;;;;;;7.22;3.08;;;;;;;13.62;62.80;101499.28;5105239;28;20070;-58
2022/09/25 06:45:25;;;;;;;5.05;2.83;;;;;;;13.63;62.67;101499.03;5111240;28;20068;-59
2022/09/25 06:47:56;;;;;;;4.95;2.53;;;;;;;13.63;62.52;101496.34;5112778;28;20051;-59
2022/09/25 06:50:30;;;;;;;5.18;2.38;;;;;;;13.64;62.57;101499.88;5112739;27;20789;-58
2022/09/25 06:52:59;;;;;;;4.13;2.55;;;;;;;13.65;62.82;101507.75;5105096;28;20548;-58
2022/09/25 06:55:28;;;;;;;7.85;3.00;;;;;;;13.65;62.60;101510.44;5107839;28;20051;-58
2022/09/25 06:57:58;;;;;;;6.78;2.90;;;;;;;13.56;62.59;101498.28;5105937;28;20047;-58
2022/09/25 07:00:26;;;;;;;7.38;2.95;;;;;;;13.64;63.10;101506.09;5099986;28;20082;-59
2022/09/25 07:05:41;;;;;;;4.60;2.42;;;;;;;13.65;62.99;101506.91;5107859;28;20072;-58
2022/09/25 07:08:09;;;;;;;5.05;3.00;;;;;;;13.64;63.06;101513.38;5111845;28;20060;-59
2022/09/25 07:10:37;;;;;;;4.43;2.67;;;;;;;13.62;63.21;101510.91;5103674;28;20043;-59
2022/09/25 07:13:11;;;;;;;6.85;3.40;;;;;;;13.61;63.26;101514.66;5109411;28;20044;-60
2022/09/25 07:15:39;;;;;;;6.90;2.55;;;;;;;13.60;63.50;101515.69;5118098;28;20059;-59
2022/09/25 07:18:07;;;;;;;7.20;3.25;;;;;;;13.57;64.05;101509.94;5105377;28;20051;-59
2022/09/25 07:20:36;;;;;;;7.40;3.30;;;;;;;13.57;63.88;101516.16;5109727;28;20040;-59
2022/09/25 07:23:04;;;;;;;5.28;2.83;;;;;;;13.58;64.26;101516.97;5114839;28;20040;-61
2022/09/25 07:25:32;;;;;;;13.57;4.38;;;;;;;13.56;63.97;101516.38;5113797;28;20054;-60
2022/09/25 07:28:00;;;;;;;4.88;3.05;;;;;;;13.56;64.13;101519.06;5108465;28;20051;-60
2022/09/25 07:30:29;;;;;;;8.52;3.33;;;;;;;13.57;64.09;101523.44;5118691;28;20119;-64
2022/09/25 07:32:57;;;;;;;6.18;2.95;;;;;;;13.55;64.30;101525.53;5121142;28;20444;-60
2022/09/25 07:35:27;;;;;;;5.50;2.80;;;;;;;13.55;64.75;101526.34;5110272;28;20142;-60
2022/09/25 07:37:55;;;;;;;8.70;3.58;;;;;;;13.54;64.46;101527.41;5100351;28;20484;-59
2022/09/25 07:40:25;;;;;;;6.38;3.30;;;;;;;13.55;64.32;101525.53;5109390;27;20054;-60
2022/09/25 07:42:53;;;;;;;4.80;2.72;;;;;;;13.54;65.00;101524.69;5119247;28;20040;-60
2022/09/25 07:45:21;;;;;;;7.05;2.40;;;;;;;13.56;64.94;101527.19;5124922;28;20054;-60
2022/09/25 07:47:50;;;;;;;7.10;2.83;;;;;;;13.56;64.52;101532.59;5114195;28;20058;-60
2022/09/25 07:50:18;;;;;;;6.85;2.88;;;;;;;13.54;64.63;101524.69;5111433;28;20048;-60
2022/09/25 07:52:46;;;;;;;7.25;3.20;;;;;;;13.54;65.00;101524.69;5115579;27;20051;-59
2022/09/25 07:55:13;;;;;;;6.53;2.63;;;;;;;13.55;64.88;101530.94;5116743;28;20060;-59
2022/09/25 07:57:42;;;;;;;4.53;2.70;;;;;;;13.54;65.28;101532.81;5134773;27;20052;-60
2022/09/25 08:00:12;;;;;;;5.88;2.90;;;;;;;13.54;64.95;101527.41;5128548;27;20051;-60
2022/09/25 08:02:39;;;;;;;7.35;3.55;;;;;;;13.56;65.63;101524.47;5122415;27;20046;-60
2022/09/25 08:05:10;;;;;;;5.72;2.65;;;;;;;13.57;65.02;101518.84;5128525;27;20052;-60
2022/09/25 08:07:38;;;;;;;3.95;2.00;;;;;;;13.57;65.48;101512.63;5132400;27;20131;-60
2022/09/25 08:10:07;;;;;;;7.90;2.90;;;;;;;13.58;65.15;101522.38;5115715;27;20052;-60
2022/09/25 08:12:35;;;;;;;6.53;2.50;;;;;;;13.51;64.95;101502.72;5128098;28;20048;-60
2022/09/25 08:15:04;;;;;;;5.95;2.65;;;;;;;13.59;65.08;101515.94;5126617;28;20051;-60
2022/09/25 08:17:32;;;;;;;4.05;2.10;;;;;;;13.60;65.32;101513.00;5111250;28;20059;-60
2022/09/25 08:19:59;;;;;;;4.63;2.10;;;;;;;13.62;64.71;101507.38;5122871;27;20104;-60
2022/09/25 08:22:29;;;;;;;5.65;2.40;;;;;;;13.62;64.62;101508.19;5124255;27;20139;-59
2022/09/25 08:24:56;;;;;;;5.55;2.00;;;;;;;13.62;64.85;101513.59;5112458;27;20156;-60
2022/09/25 08:27:24;;;;;;;5.78;2.08;;;;;;;13.63;65.23;101517.13;5116463;27;20103;-60
2022/09/25 08:29:52;;;;;;;4.80;2.33;;;;;;;13.64;64.91;101508.81;5121116;28;20047;-59
2022/09/25 08:32:20;;;;;;;5.00;1.90;;;;;;;13.65;64.80;101515.84;5126030;27;20044;-60
2022/09/25 08:34:48;;;;;;;7.70;2.15;;;;;;;13.65;64.89;101521.25;5125722;28;20125;-60
2022/09/25 08:37:18;;;;;;;6.55;2.53;;;;;;;13.65;65.15;101515.84;5109478;28;20485;-59
2022/09/25 08:39:47;;;;;;;10.98;2.42;;;;;;;13.66;65.00;101516.69;5125714;27;20556;-60
2022/09/25 08:42:19;;;;;;;5.30;1.98;;;;;;;13.66;65.52;101513.97;5114128;27;20066;-60
2022/09/25 08:49:00;;;;;;;5.13;1.77;;;;;;;13.67;65.46;101523.72;5120567;27;20051;-60
2022/09/25 08:50:36;;;;;;;4.18;1.48;;;;;;;13.70;65.31;101517.88;5123645;27;20044;-60
2022/09/25 08:53:07;;;;;;;5.70;2.08;;;;;;;13.72;65.22;101517.66;5117578;28;20048;-59
2022/09/25 08:58:28;;;;;;;6.78;1.92;;;;;;;13.78;65.24;101512.16;5125750;27;20047;-60
2022/09/25 09:01:00;;;;;;;5.15;1.60;;;;;;;13.79;64.77;101508.41;5119819;27;20096;-60
2022/09/25 09:03:31;;;;;;;4.22;1.23;;;;;;;13.81;65.10;101505.47;5127436;27;20110;-61
2022/09/25 09:06:02;;;;;;;2.67;1.25;;;;;;;13.82;65.33;101504.44;5126392;28;20131;-60
2022/09/25 09:08:33;;;;;;;5.18;1.80;;;;;;;13.83;65.33;101514.19;5127908;27;20473;-60
2022/09/25 09:11:07;;;;;;;3.35;1.50;;;;;;;13.82;65.10;101505.25;5126331;28;20054;-60
2022/09/25 09:13:46;;;;;;;5.38;1.27;;;;;;;13.84;64.81;101500.44;5119667;27;20051;-60
2022/09/25 09:16:23;;;;;;;3.28;1.38;;;;;;;13.86;65.28;101497.53;5111108;27;20128;-60
2022/09/25 09:18:50;;;;;;;;;;;;;;;13.85;64.77;101495.88;5125198;27;20192;-60
2022/09/25 09:21:25;;;;;;;4.53;1.35;;;;;;;13.86;64.91;101497.53;5111186;28;19926;-60
2022/09/25 09:23:59;;;;;;;5.00;1.65;;;;;;;13.89;65.01;101499.75;5124013;28;20051;-60
2022/09/25 09:27:03;;;;;;;8.13;2.08;;;;;;;13.88;65.05;101498.91;5125895;28;20444;-60
2022/09/25 09:30:02;;;;;;;2.20;0.95;;;;;;;13.91;64.49;101498.47;5124605;28;20126;-60
2022/09/25 09:32:53;;;;;;;6.20;1.75;;;;;;;13.93;64.20;101493.66;5125332;27;20074;-59
2022/09/25 09:35:29;;;;;;;7.20;2.42;;;;;;;13.95;63.77;101496.13;5123275;28;20047;-60
2022/09/25 09:38:11;;;;;;;6.78;1.30;;;;;;;13.95;63.68;101496.13;5119286;28;20079;-59
2022/09/25 09:41:08;;;;;;;10.80;2.15;;;;;;;13.96;64.04;101504.00;5125802;28;20115;-59
2022/09/25 09:43:46;;;;;;;11.32;1.23;;;;;;;13.98;64.07;101498.38;5098594;28;20461;-59
2022/09/25 09:46:21;;;;;;;6.78;1.65;;;;;;;14.01;63.23;101495.22;5113853;27;20039;-59
2022/09/25 09:48:59;;;;;;;6.75;1.80;;;;;;;14.04;63.04;101491.22;5115910;28;20055;-59
2022/09/25 09:51:32;;;;;;;4.03;1.85;;;;;;;14.05;63.00;101488.28;5124321;28;20050;-59
2022/09/25 09:54:06;;;;;;;7.80;1.73;;;;;;;14.06;62.53;101492.66;5126171;28;20043;-59
2022/09/25 09:56:34;;;;;;;5.15;1.08;;;;;;;14.09;62.39;101491.38;5123147;28;20051;-61
2022/09/25 09:59:07;;;;;;;2.78;0.90;;;;;;;13.99;62.45;101467.59;5110401;28;20044;-59
2022/09/25 10:01:37;;;;;;;6.53;1.40;;;;;;;14.11;62.33;101484.69;5138547;27;20043;-59
2022/09/25 10:04:12;;;;;;;5.45;1.00;;;;;;;14.14;62.73;101483.38;5121587;27;20044;-59
2022/09/25 10:06:45;;;;;;;5.35;1.77;;;;;;;14.15;62.66;101482.34;5120347;28;20062;-59
2022/09/25 10:09:15;;;;;;;6.43;1.20;;;;;;;14.17;62.64;101481.06;5115762;28;20130;-59
2022/09/25 10:11:45;;;;;;;5.47;1.00;;;;;;;14.18;63.21;101471.88;5108562;28;20142;-60
2022/09/25 10:14:20;;;;;;;4.82;1.60;;;;;;;14.22;62.94;101473.06;5125330;28;20130;-60
2022/09/25 10:16:49;;;;;;;3.35;0.90;;;;;;;14.25;62.95;101479.91;5109531;28;20378;-60
2022/09/25 10:19:20;;;;;;;3.85;0.93;;;;;;;14.27;63.17;101477.78;5111456;28;20083;-60
2022/09/25 10:21:53;;;;;;;2.67;1.20;;;;;;;14.31;62.44;101473.56;5114100;27;20067;-60
2022/09/25 10:24:50;;;;;;;3.58;1.10;;;;;;;14.33;62.45;101480.41;5126045;27;20051;-61
2022/09/25 10:27:32;;;;;;;5.53;1.25;;;;;;;14.35;62.38;101480.16;5121102;27;20069;-61
2022/09/25 10:30:25;;;;;;;3.20;0.80;;;;;;;14.38;61.71;101468.06;5116466;27;20051;-61
2022/09/25 10:32:57;;;;;;;2.95;1.05;;;;;;;14.39;61.55;101461.59;5106889;28;20052;-61
2022/09/25 10:35:28;;;;;;;4.10;1.27;;;;;;;14.40;61.16;101461.38;5118135;28;20061;-61
2022/09/25 10:38:00;;;;;;;4.13;1.10;;;;;;;14.43;61.52;101460.09;5113836;28;20058;-60
2022/09/25 10:40:32;;;;;;;7.72;1.35;;;;;;;14.43;61.46;101460.94;5116106;28;20048;-61
2022/09/25 10:43:16;;;;;;;1.35;0.75;;;;;;;14.50;60.98;101466.25;5118095;27;20047;-61
2022/09/25 10:45:45;;;;;;;5.28;1.10;;;;;;;14.52;61.12;101467.66;5111124;27;20056;-61
2022/09/25 10:51:20;;;;;;;3.55;0.70;;;;;;;14.55;59.68;101467.19;5118090;27;20055;-61
2022/09/25 10:53:49;;;;;;;4.28;0.90;;;;;;;14.57;59.48;101467.78;5116843;28;20044;-61
2022/09/25 10:56:20;;;;;;;2.35;0.88;;;;;;;14.61;59.54;101468.13;5131671;27;20062;-61
2022/09/25 10:58:54;;;;;;;4.15;0.90;;;;;;;14.63;59.93;101468.72;5123568;27;20134;-61
2022/09/25 11:01:32;;;;;;;3.70;1.13;;;;;;;14.67;60.61;101461.78;5121168;28;20054;-61
2022/09/25 11:04:01;;;;;;;3.55;1.08;;;;;;;14.68;59.87;101462.63;5122406;28;20071;-61
2022/09/25 11:06:32;;;;;;;4.40;0.88;;;;;;;14.70;59.82;101463.22;5115959;27;20390;-61
2022/09/25 11:09:08;;;;;;;6.82;1.00;;;;;;;14.73;59.61;101458.16;5120400;28;20051;-63
2022/09/25 11:11:38;;;;;;;4.30;1.58;;;;;;;14.75;59.73;101463.31;5110757;28;20080;-61
2022/09/25 11:14:17;;;;;;;3.55;1.10;;;;;;;14.77;59.85;101461.22;5116751;28;20044;-60
2022/09/25 11:16:50;;;;;;;2.55;0.82;;;;;;;14.77;58.65;101453.91;4416848;27;10000883;-59
2022/09/25 11:19:24;;;;;;;4.15;1.42;;;;;;;14.80;58.58;101458.03;5136072;27;20052;-60
2022/09/25 11:22:03;;;;;;;4.30;1.17;;;;;;;14.80;58.81;101452.63;5144144;27;20050;-60
2022/09/25 11:24:43;;;;;;;3.22;0.98;;;;;;;14.81;59.11;101457.81;4783566;27;10001700;-59
2022/09/25 11:27:16;;;;;;;5.35;1.52;;;;;;;14.84;58.71;101467.34;5132779;27;20039;-60
2022/09/25 11:29:54;;;;;;;1.65;0.77;;;;;;;14.85;57.76;101455.44;5140241;27;20047;-60
2022/09/25 11:32:28;;;;;;;3.63;1.25;;;;;;;14.86;57.94;101454.41;5140042;27;20355;-60
2022/09/25 11:35:18;;;;;;;3.63;1.00;;;;;;;14.88;57.32;101457.69;5137490;27;20047;-60
2022/09/25 11:37:56;;;;;;;4.18;1.00;;;;;;;14.90;57.77;101458.28;5132693;27;20127;-60
2022/09/25 11:43:37;;;;;;;2.08;0.85;;;;;;;14.94;58.67;101444.03;5136791;27;20147;-60
2022/09/25 11:46:14;;;;;;;1.20;0.57;;;;;;;14.97;58.57;101437.31;5131832;27;20049;-61
2022/09/25 11:48:54;;;;;;;3.30;0.90;;;;;;;14.99;56.79;101437.91;5135100;27;20043;-64
2022/09/25 11:51:35;;;;;;;5.90;1.42;;;;;;;14.98;56.88;101431.69;5133304;27;20039;-59
2022/09/25 11:54:15;;;;;;;6.80;1.20;;;;;;;15.01;56.17;101435.78;5125856;27;20130;-60
2022/09/25 11:57:05;;;;;;;1.90;0.63;;;;;;;15.04;57.09;101432.63;5122639;27;20047;-66
2022/09/25 11:59:51;;;;;;;4.20;1.25;;;;;;;15.04;56.44;101427.19;5122470;27;20062;-60
2022/09/25 12:02:31;;;;;;;3.08;1.45;;;;;;;15.06;56.20;101421.56;5111801;28;20044;-59